createdAt,value
2023-03-15T00:01:39.799Z,84.02
2023-03-15T00:08:15.751Z,85.43
2023-03-15T00:10:44.919Z,85.65
2023-03-15T00:13:13.276Z,86.52
2023-03-15T00:15:48.989Z,87.28
2023-03-15T00:18:17.673Z,87.98
2023-03-15T00:20:47.249Z,88.20
2023-03-15T00:23:15.643Z,88.41
2023-03-15T00:25:50.582Z,88.85
2023-03-15T00:28:19.536Z,89.28
2023-03-15T00:30:47.748Z,89.62
2023-03-15T00:33:17.268Z,89.61
2023-03-15T00:35:45.820Z,90.01
2023-03-15T00:38:18.172Z,90.35
2023-03-15T00:40:46.982Z,90.61
2023-03-15T00:43:18.012Z,90.62
2023-03-15T00:45:47.503Z,91.18
2023-03-15T00:48:15.836Z,91.85
2023-03-15T00:50:45.888Z,92.38
2023-03-15T00:53:14.101Z,92.67
2023-03-15T00:55:46.673Z,92.70
2023-03-15T00:58:17.605Z,93.07
2023-03-15T01:00:45.922Z,93.41
2023-03-15T01:03:16.965Z,93.56
2023-03-15T01:05:45.301Z,93.88
2023-03-15T01:08:13.487Z,94.28
2023-03-15T01:10:44.987Z,94.38
2023-03-15T01:13:13.100Z,94.72
2023-03-15T01:15:45.982Z,95.24
2023-03-15T01:18:14.372Z,95.44
2023-03-15T01:20:44.291Z,95.57
2023-03-15T01:23:13.379Z,96.12
2023-03-15T01:25:41.675Z,96.59
2023-03-15T01:28:10.326Z,96.95
2023-03-15T01:30:38.886Z,97.23
2023-03-15T01:33:07.033Z,97.64
2023-03-15T01:35:35.553Z,98.05
2023-03-15T01:38:03.784Z,98.11
2023-03-15T01:40:34.176Z,98.45
2023-03-15T01:43:05.435Z,98.55
2023-03-15T01:45:52.754Z,99.14
2023-03-15T01:48:22.607Z,99.73
2023-03-15T01:50:51.053Z,99.91
2023-03-15T01:53:20.167Z,100.00
2023-03-15T01:55:49.971Z,100.00
2023-03-15T01:58:21.740Z,100.00
2023-03-15T02:00:53.154Z,100.00
2023-03-15T02:03:25.050Z,100.00
2023-03-15T02:05:58.032Z,100.00
2023-03-15T02:08:39.213Z,100.00
2023-03-15T02:11:07.436Z,100.00
2023-03-15T02:13:38.127Z,100.00
2023-03-15T02:16:09.493Z,100.00
2023-03-15T02:18:43.050Z,100.00
2023-03-15T02:21:31.269Z,100.00
2023-03-15T02:24:21.163Z,100.00
2023-03-15T02:26:53.633Z,100.00
2023-03-15T02:29:22.067Z,100.00
2023-03-15T02:31:53.685Z,100.00
2023-03-15T02:34:25.515Z,100.00
2023-03-15T02:36:54.990Z,100.00
2023-03-15T02:39:23.696Z,100.00
2023-03-15T02:41:53.860Z,100.00
2023-03-15T02:44:33.767Z,100.00
2023-03-15T02:47:16.814Z,100.00
2023-03-15T02:49:46.718Z,100.00
2023-03-15T02:52:15.024Z,100.00
2023-03-15T02:54:43.804Z,100.00
2023-03-15T02:57:15.754Z,100.00
2023-03-15T02:59:44.484Z,100.00
2023-03-15T03:02:13.616Z,100.00
2023-03-15T03:04:44.470Z,100.00
2023-03-15T03:07:13.290Z,100.00
2023-03-15T03:09:51.057Z,100.00
2023-03-15T03:12:20.984Z,100.00
2023-03-15T03:14:54.467Z,100.00
2023-03-15T03:17:24.996Z,100.00
2023-03-15T03:19:53.311Z,100.00
2023-03-15T03:22:27.184Z,100.00
2023-03-15T03:24:56.236Z,100.00
2023-03-15T03:27:25.280Z,100.00
2023-03-15T03:29:53.823Z,100.00
2023-03-15T03:32:22.321Z,100.00
2023-03-15T03:34:51.509Z,100.00
2023-03-15T03:37:22.710Z,100.00
2023-03-15T03:39:58.642Z,100.00
2023-03-15T03:42:27.266Z,100.00
2023-03-15T03:44:55.439Z,100.00
2023-03-15T03:47:24.444Z,100.00
2023-03-15T03:49:52.894Z,100.00
2023-03-15T03:52:26.062Z,100.00
2023-03-15T03:54:56.412Z,100.00
2023-03-15T03:57:25.296Z,100.00
2023-03-15T03:59:53.871Z,100.00
2023-03-15T04:02:22.697Z,100.00
2023-03-15T04:05:06.081Z,100.00
2023-03-15T04:07:34.726Z,100.00
2023-03-15T04:10:03.091Z,100.00
2023-03-15T04:12:31.886Z,100.00
2023-03-15T04:15:01.155Z,100.00
2023-03-15T04:17:34.260Z,100.00
2023-03-15T04:20:05.255Z,100.00
2023-03-15T04:22:35.033Z,100.00
2023-03-15T04:25:26.713Z,100.00
2023-03-15T04:28:13.486Z,100.00
2023-03-15T04:31:05.197Z,100.00
2023-03-15T04:33:54.780Z,100.00
2023-03-15T04:36:45.911Z,100.00
2023-03-15T04:39:36.842Z,100.00
2023-03-15T04:42:17.320Z,100.00
2023-03-15T04:45:09.260Z,100.00
2023-03-15T04:48:01.593Z,100.00
2023-03-15T04:50:44.169Z,100.00
2023-03-15T04:53:35.911Z,100.00
2023-03-15T04:56:22.598Z,100.00
2023-03-15T04:59:11.580Z,100.00
2023-03-15T05:01:51.517Z,100.00
2023-03-15T05:04:52.205Z,100.00
2023-03-15T05:07:44.538Z,100.00
2023-03-15T05:10:42.274Z,100.00
2023-03-15T05:13:28.371Z,100.00
2023-03-15T05:19:46.443Z,100.00
2023-03-15T05:22:33.250Z,100.00
2023-03-15T05:25:20.188Z,100.00
2023-03-15T05:28:08.529Z,100.00
2023-03-15T05:30:59.417Z,100.00
2023-03-15T05:33:54.557Z,100.00
2023-03-15T05:36:32.301Z,100.00
2023-03-15T05:39:23.074Z,100.00
2023-03-15T05:42:07.795Z,100.00
2023-03-15T05:44:41.706Z,100.00
2023-03-15T05:47:42.387Z,100.00
2023-03-15T05:50:31.651Z,100.00
2023-03-15T05:53:15.307Z,100.00
2023-03-15T05:55:58.057Z,100.00
2023-03-15T05:58:44.840Z,100.00
2023-03-15T06:01:42.254Z,100.00
2023-03-15T06:04:24.891Z,100.00
2023-03-15T06:06:53.433Z,100.00
2023-03-15T06:09:24.510Z,100.00
2023-03-15T06:11:53.745Z,100.00
2023-03-15T06:14:23.183Z,100.00
2023-03-15T06:16:53.590Z,100.00
2023-03-15T06:19:24.457Z,100.00
2023-03-15T06:21:54.428Z,100.00
2023-03-15T06:24:36.930Z,100.00
2023-03-15T06:27:05.119Z,100.00
2023-03-15T06:29:36.183Z,100.00
2023-03-15T06:32:04.949Z,100.00
2023-03-15T06:34:33.707Z,100.00
2023-03-15T06:37:02.166Z,100.00
2023-03-15T06:39:34.484Z,100.00
2023-03-15T06:42:04.488Z,100.00
2023-03-15T06:44:35.527Z,100.00
2023-03-15T06:47:06.504Z,100.00
2023-03-15T06:49:34.648Z,100.00
2023-03-15T06:52:04.639Z,100.00
2023-03-15T06:54:33.466Z,100.00
2023-03-15T06:57:02.286Z,100.00
2023-03-15T06:59:31.236Z,100.00
2023-03-15T07:02:00.691Z,100.00
2023-03-15T07:04:29.088Z,100.00
2023-03-15T07:06:57.253Z,100.00
2023-03-15T07:09:25.490Z,100.00
2023-03-15T07:11:53.891Z,100.00
2023-03-15T07:14:22.429Z,100.00
2023-03-15T07:16:50.716Z,100.00
2023-03-15T07:19:19.033Z,100.00
2023-03-15T07:21:48.438Z,100.00
2023-03-15T07:24:17.331Z,100.00
2023-03-15T07:26:45.677Z,100.00
2023-03-15T07:29:13.780Z,100.00
2023-03-15T07:31:41.930Z,100.00
2023-03-15T07:34:10.162Z,100.00
2023-03-15T07:36:39.112Z,100.00
2023-03-15T07:39:07.282Z,100.00
2023-03-15T07:41:38.416Z,100.00
2023-03-15T07:44:16.669Z,100.00
2023-03-15T07:46:44.906Z,100.00
2023-03-15T07:49:13.579Z,100.00
2023-03-15T07:51:42.559Z,100.00
2023-03-15T07:54:11.381Z,100.00
2023-03-15T07:56:40.330Z,100.00
2023-03-15T07:59:08.775Z,100.00
2023-03-15T08:01:37.636Z,100.00
2023-03-15T08:04:06.008Z,100.00
2023-03-15T08:06:37.120Z,100.00
2023-03-15T08:09:06.931Z,100.00
2023-03-15T08:14:11.195Z,99.11
2023-03-15T08:16:39.449Z,98.44
2023-03-15T08:19:09.573Z,97.86
2023-03-15T08:21:39.033Z,97.55
2023-03-15T08:24:07.503Z,96.65
2023-03-15T08:26:43.408Z,95.62
2023-03-15T08:29:12.389Z,95.18
2023-03-15T08:31:40.563Z,94.87
2023-03-15T08:34:09.139Z,94.85
2023-03-15T08:36:47.551Z,94.93
2023-03-15T08:39:15.815Z,94.62
2023-03-15T08:41:45.613Z,94.45
2023-03-15T08:44:16.462Z,94.17
2023-03-15T08:46:45.166Z,94.13
2023-03-15T08:49:13.285Z,94.12
2023-03-15T08:51:41.447Z,93.80
2023-03-15T08:54:09.804Z,92.71
2023-03-15T08:56:41.818Z,91.77
2023-03-15T08:59:12.816Z,91.56
2023-03-15T09:01:44.921Z,91.46
2023-03-15T09:04:14.031Z,91.21
2023-03-15T09:06:42.381Z,90.95
2023-03-15T09:09:10.572Z,91.08
2023-03-15T09:11:40.444Z,91.20
2023-03-15T09:14:08.685Z,90.47
2023-03-15T09:16:37.386Z,90.74
2023-03-15T09:19:05.710Z,90.24
2023-03-15T09:21:34.193Z,90.11
2023-03-15T09:24:02.398Z,90.33
2023-03-15T09:26:30.918Z,90.35
2023-03-15T09:29:03.332Z,90.13
2023-03-15T09:31:32.352Z,90.13
2023-03-15T09:34:00.738Z,90.14
2023-03-15T09:36:29.033Z,90.40
2023-03-15T09:38:57.538Z,90.53
2023-03-15T09:41:45.126Z,90.35
2023-03-15T09:44:22.422Z,90.83
2023-03-15T09:46:53.935Z,91.28
2023-03-15T09:49:59.536Z,91.89
2023-03-15T09:53:00.163Z,92.51
2023-03-15T09:55:28.829Z,92.71
2023-03-15T09:58:04.100Z,93.17
2023-03-15T10:00:47.996Z,93.76
2023-03-15T10:03:46.082Z,93.78
2023-03-15T10:06:30.497Z,93.80
2023-03-15T10:08:59.812Z,93.47
2023-03-15T10:11:46.313Z,92.74
2023-03-15T10:14:30.341Z,92.35
2023-03-15T10:16:58.443Z,92.43
2023-03-15T10:19:32.639Z,92.37
2023-03-15T10:22:11.685Z,92.60
2023-03-15T10:24:41.270Z,92.14
2023-03-15T10:27:14.630Z,91.81
2023-03-15T10:29:42.994Z,91.68
2023-03-15T10:32:17.956Z,91.48
2023-03-15T10:34:52.368Z,91.28
2023-03-15T10:37:25.248Z,91.32
2023-03-15T10:39:57.504Z,90.54
2023-03-15T10:42:32.787Z,89.58
2023-03-15T10:45:21.760Z,88.70
2023-03-15T10:47:59.637Z,88.67
2023-03-15T10:50:35.433Z,87.99
2023-03-15T10:53:10.613Z,86.79
2023-03-15T10:55:43.543Z,86.32
2023-03-15T10:58:25.872Z,86.40
2023-03-15T11:01:02.013Z,85.56
2023-03-15T11:03:31.382Z,84.43
2023-03-15T11:06:00.060Z,83.90
2023-03-15T11:08:40.060Z,83.23
2023-03-15T11:11:08.413Z,81.44
2023-03-15T11:14:01.659Z,80.49
2023-03-15T11:16:36.332Z,79.41
2023-03-15T11:19:04.581Z,78.23
2023-03-15T11:21:33.763Z,77.66
2023-03-15T11:24:03.384Z,76.61
2023-03-15T11:26:36.607Z,75.91
2023-03-15T11:29:11.230Z,74.57
2023-03-15T11:31:39.524Z,74.41
2023-03-15T11:34:39.152Z,74.67
2023-03-15T11:37:15.374Z,75.19
2023-03-15T11:40:01.619Z,75.26
2023-03-15T11:42:37.080Z,74.39
2023-03-15T11:45:09.177Z,74.01
2023-03-15T11:47:42.733Z,74.27
2023-03-15T11:50:15.041Z,73.47
2023-03-15T11:52:43.268Z,73.07
2023-03-15T11:55:17.270Z,72.67
2023-03-15T11:57:46.404Z,72.78
2023-03-15T12:00:47.239Z,72.92
2023-03-15T12:03:28.509Z,73.50
2023-03-15T12:06:34.203Z,74.75
2023-03-15T12:09:02.424Z,76.04
2023-03-15T12:11:33.550Z,77.09
2023-03-15T12:14:01.866Z,77.95
2023-03-15T12:16:34.920Z,79.11
2023-03-15T12:19:21.117Z,79.92
2023-03-15T12:21:53.543Z,80.58
2023-03-15T12:24:26.861Z,81.45
2023-03-15T12:26:59.451Z,82.24
2023-03-15T12:29:28.576Z,82.88
2023-03-15T12:32:02.994Z,82.94
2023-03-15T12:34:39.560Z,82.55
2023-03-15T12:37:21.996Z,81.94
2023-03-15T12:40:16.044Z,81.38
2023-03-15T12:42:48.257Z,81.16
2023-03-15T12:45:17.603Z,81.39
2023-03-15T12:47:52.182Z,82.01
2023-03-15T12:50:45.880Z,82.08
2023-03-15T12:53:22.740Z,82.50
2023-03-15T12:55:54.072Z,83.07
2023-03-15T12:58:35.010Z,83.06
2023-03-15T13:01:05.724Z,83.00
2023-03-15T13:03:35.413Z,83.30
2023-03-15T13:06:08.322Z,83.74
2023-03-15T13:09:04.878Z,83.81
2023-03-15T13:11:49.800Z,83.13
2023-03-15T13:14:33.681Z,83.11
2023-03-15T13:17:17.365Z,82.97
2023-03-15T13:19:46.964Z,82.90
2023-03-15T13:22:29.854Z,82.78
2023-03-15T13:25:08.903Z,82.98
2023-03-15T13:27:43.454Z,82.54
2023-03-15T13:30:37.360Z,81.84
2023-03-15T13:33:08.643Z,81.83
2023-03-15T13:35:48.119Z,82.27
2023-03-15T13:38:32.827Z,82.15
2023-03-15T13:41:06.414Z,82.35
2023-03-15T13:43:36.825Z,82.26
2023-03-15T13:46:09.528Z,82.28
2023-03-15T13:48:44.038Z,82.29
2023-03-15T13:51:15.189Z,82.05
2023-03-15T13:53:49.804Z,82.22
2023-03-15T13:56:20.591Z,82.17
2023-03-15T13:58:52.162Z,82.53
2023-03-15T14:01:20.473Z,82.89
2023-03-15T14:03:52.194Z,83.03
2023-03-15T14:06:22.746Z,83.21
2023-03-15T14:08:55.186Z,83.38
2023-03-15T14:11:26.085Z,83.57
2023-03-15T14:13:59.654Z,83.94
2023-03-15T14:17:04.814Z,84.14
2023-03-15T14:19:35.076Z,84.49
2023-03-15T14:22:05.625Z,84.78
2023-03-15T14:24:41.327Z,85.30
2023-03-15T14:27:13.559Z,85.43
2023-03-15T14:29:50.011Z,85.60
2023-03-15T14:32:34.263Z,85.86
2023-03-15T14:35:08.189Z,85.83
2023-03-15T14:37:42.627Z,86.10
2023-03-15T14:40:35.252Z,86.21
2023-03-15T14:43:04.376Z,86.20
2023-03-15T14:45:33.673Z,86.13
2023-03-15T14:48:11.656Z,86.43
2023-03-15T14:50:41.918Z,86.94
2023-03-15T14:53:14.746Z,87.51
2023-03-15T14:55:49.059Z,88.12
2023-03-15T14:58:19.253Z,89.64
2023-03-15T15:00:50.002Z,90.74
2023-03-15T15:03:44.175Z,91.74
2023-03-15T15:06:14.391Z,92.06
2023-03-15T15:08:47.651Z,92.26
2023-03-15T15:11:16.472Z,92.80
2023-03-15T15:13:45.450Z,93.39
2023-03-15T15:16:13.887Z,93.92
2023-03-15T15:18:42.570Z,94.68
2023-03-15T15:21:18.463Z,95.61
2023-03-15T15:23:58.036Z,96.46
2023-03-15T15:26:28.534Z,97.14
2023-03-15T15:28:58.030Z,97.86
2023-03-15T15:31:33.817Z,98.14
2023-03-15T15:34:04.135Z,98.67
2023-03-15T15:36:38.795Z,98.99
2023-03-15T15:39:22.282Z,99.39
2023-03-15T15:41:50.536Z,99.58
2023-03-15T15:44:21.671Z,99.96
2023-03-15T15:46:50.073Z,99.91
2023-03-15T15:49:19.606Z,99.95
2023-03-15T15:51:50.219Z,99.95
2023-03-15T15:54:20.535Z,99.70
2023-03-15T15:56:50.717Z,99.83
2023-03-15T15:59:19.740Z,99.52
2023-03-15T16:02:00.684Z,99.61
2023-03-15T16:04:37.549Z,99.55
2023-03-15T16:07:07.217Z,99.46
2023-03-15T16:09:36.267Z,99.48
2023-03-15T16:12:13.779Z,99.88
2023-03-15T16:14:42.798Z,100.00
2023-03-15T16:17:22.251Z,100.00
2023-03-15T16:19:53.332Z,100.00
2023-03-15T16:22:22.595Z,100.00
2023-03-15T16:24:53.531Z,100.00
2023-03-15T16:27:23.492Z,100.00
2023-03-15T16:29:53.335Z,100.00
2023-03-15T16:32:36.749Z,100.00
2023-03-15T16:35:17.912Z,100.00
2023-03-15T16:37:47.650Z,100.00
2023-03-15T16:40:21.525Z,100.00
2023-03-15T16:42:49.983Z,100.00
2023-03-15T16:45:18.637Z,100.00
2023-03-15T16:47:48.825Z,100.00
2023-03-15T16:50:18.883Z,100.00
2023-03-15T16:52:48.004Z,100.00
2023-03-15T16:55:20.082Z,100.00
2023-03-15T16:57:52.090Z,100.00
2023-03-15T17:00:20.905Z,100.00
2023-03-15T17:02:50.150Z,100.00
2023-03-15T17:05:24.464Z,100.00
2023-03-15T17:07:54.166Z,100.00
2023-03-15T17:10:31.091Z,100.00
2023-03-15T17:13:02.962Z,100.00
2023-03-15T17:15:31.603Z,100.00
2023-03-15T17:18:00.484Z,100.00
2023-03-15T17:20:30.057Z,100.00
2023-03-15T17:23:04.074Z,100.00
2023-03-15T17:25:33.727Z,100.00
2023-03-15T17:28:03.429Z,100.00
2023-03-15T17:30:33.714Z,100.00
2023-03-15T17:33:05.240Z,100.00
2023-03-15T17:35:37.280Z,100.00
2023-03-15T17:38:06.558Z,100.00
2023-03-15T17:40:35.441Z,100.00
2023-03-15T17:43:04.517Z,100.00
2023-03-15T17:45:33.803Z,100.00
2023-03-15T17:48:02.323Z,100.00
2023-03-15T17:50:32.497Z,100.00
2023-03-15T17:53:18.866Z,100.00
2023-03-15T17:55:48.101Z,100.00
2023-03-15T17:58:21.939Z,100.00
2023-03-15T18:00:51.653Z,100.00
2023-03-15T18:03:20.348Z,100.00
2023-03-15T18:05:50.641Z,100.00
2023-03-15T18:08:34.814Z,100.00
2023-03-15T18:11:04.389Z,100.00
2023-03-15T18:13:33.537Z,100.00
2023-03-15T18:16:02.349Z,100.00
2023-03-15T18:18:31.969Z,100.00
2023-03-15T18:21:00.422Z,100.00
2023-03-15T18:23:33.482Z,100.00
2023-03-15T18:26:02.667Z,100.00
2023-03-15T18:28:31.294Z,100.00
2023-03-15T18:31:00.138Z,100.00
2023-03-15T18:33:28.631Z,100.00
2023-03-15T18:35:58.991Z,100.00
2023-03-15T18:38:30.109Z,100.00
2023-03-15T18:40:58.719Z,100.00
2023-03-15T18:43:28.162Z,100.00
2023-03-15T18:45:56.695Z,100.00
2023-03-15T18:48:40.087Z,100.00
2023-03-15T18:51:12.406Z,100.00
2023-03-15T18:53:41.599Z,100.00
2023-03-15T18:56:31.091Z,100.00
2023-03-15T18:59:00.678Z,100.00
2023-03-15T19:01:29.399Z,100.00
2023-03-15T19:03:57.849Z,100.00
2023-03-15T19:06:28.646Z,100.00
2023-03-15T19:08:57.539Z,100.00
2023-03-15T19:11:27.124Z,100.00
2023-03-15T19:13:55.611Z,100.00
2023-03-15T19:16:24.956Z,100.00
2023-03-15T19:18:54.064Z,100.00
2023-03-15T19:21:28.167Z,100.00
2023-03-15T19:23:58.172Z,100.00
2023-03-15T19:26:26.654Z,100.00
2023-03-15T19:28:56.669Z,100.00
2023-03-15T19:31:25.193Z,100.00
2023-03-15T19:33:59.240Z,100.00
2023-03-15T19:36:27.828Z,100.00
2023-03-15T19:38:56.487Z,100.00
2023-03-15T19:41:27.326Z,100.00
2023-03-15T19:43:56.240Z,100.00
2023-03-15T19:46:30.792Z,100.00
2023-03-15T19:48:59.545Z,100.00
2023-03-15T19:51:28.190Z,100.00
2023-03-15T19:53:57.425Z,100.00
2023-03-15T19:56:26.338Z,100.00
2023-03-15T19:58:57.300Z,100.00
2023-03-15T20:01:27.104Z,100.00
2023-03-15T20:03:56.203Z,100.00
2023-03-15T20:06:24.845Z,100.00
2023-03-15T20:08:53.724Z,100.00
2023-03-15T20:11:29.496Z,100.00
2023-03-15T20:13:58.193Z,100.00
2023-03-15T20:16:26.920Z,100.00
2023-03-15T20:18:57.181Z,100.00
2023-03-15T20:21:26.029Z,100.00
2023-03-15T20:23:54.963Z,100.00
2023-03-15T20:26:25.498Z,100.00
2023-03-15T20:28:53.869Z,100.00
2023-03-15T20:31:23.111Z,100.00
2023-03-15T20:33:53.596Z,100.00
2023-03-15T20:36:22.176Z,100.00
2023-03-15T20:38:50.716Z,100.00
2023-03-15T20:41:19.840Z,100.00
2023-03-15T20:43:49.151Z,100.00
2023-03-15T20:46:19.464Z,100.00
2023-03-15T20:48:47.758Z,100.00
2023-03-15T20:51:16.911Z,100.00
2023-03-15T20:53:46.558Z,100.00
2023-03-15T20:56:16.856Z,100.00
2023-03-15T20:58:48.823Z,100.00
2023-03-15T21:01:17.281Z,100.00
2023-03-15T21:03:50.928Z,100.00
2023-03-15T21:06:20.223Z,100.00
2023-03-15T21:08:48.739Z,100.00
2023-03-15T21:11:17.006Z,100.00
2023-03-15T21:13:45.781Z,100.00
2023-03-15T21:16:15.200Z,100.00
2023-03-15T21:18:51.968Z,100.00
2023-03-15T21:21:24.949Z,100.00
2023-03-15T21:23:54.758Z,100.00
2023-03-15T21:26:24.944Z,100.00
2023-03-15T21:28:58.089Z,100.00
2023-03-15T21:31:28.340Z,100.00
2023-03-15T21:33:57.503Z,100.00
2023-03-15T21:36:26.315Z,100.00
2023-03-15T21:38:55.767Z,100.00
2023-03-15T21:41:24.942Z,100.00
2023-03-15T21:43:53.426Z,100.00
2023-03-15T21:46:21.931Z,100.00
2023-03-15T21:48:51.788Z,100.00
2023-03-15T21:51:20.066Z,100.00
2023-03-15T21:53:51.372Z,100.00
2023-03-15T21:56:19.900Z,100.00
2023-03-15T21:58:48.101Z,100.00
2023-03-15T22:01:16.721Z,100.00
2023-03-15T22:03:44.826Z,100.00
2023-03-15T22:06:13.371Z,100.00
2023-03-15T22:08:42.499Z,100.00
2023-03-15T22:11:10.737Z,100.00
2023-03-15T22:13:41.723Z,100.00
2023-03-15T22:16:11.059Z,100.00
2023-03-15T22:18:39.374Z,100.00
2023-03-15T22:21:10.739Z,100.00
2023-03-15T22:23:39.642Z,100.00
2023-03-15T22:26:11.139Z,100.00
2023-03-15T22:28:41.548Z,100.00
2023-03-15T22:31:11.027Z,100.00
2023-03-15T22:33:40.776Z,100.00
2023-03-15T22:36:09.903Z,100.00
2023-03-15T22:38:39.694Z,100.00
2023-03-15T22:41:09.143Z,100.00
2023-03-15T22:43:37.484Z,100.00
2023-03-15T22:46:06.499Z,100.00
2023-03-15T22:48:35.164Z,100.00
2023-03-15T22:51:09.982Z,100.00
2023-03-15T22:53:39.010Z,100.00
2023-03-15T22:56:07.337Z,100.00
2023-03-15T22:58:36.338Z,100.00
2023-03-15T23:01:04.530Z,100.00
2023-03-15T23:03:32.882Z,100.00
2023-03-15T23:06:00.985Z,100.00
2023-03-15T23:08:29.308Z,100.00
2023-03-15T23:10:58.691Z,100.00
2023-03-15T23:13:27.028Z,100.00
2023-03-15T23:15:55.451Z,100.00
2023-03-15T23:18:23.763Z,100.00
2023-03-15T23:20:51.840Z,100.00
2023-03-15T23:23:20.066Z,100.00
2023-03-15T23:25:48.213Z,100.00
2023-03-15T23:28:17.965Z,100.00
2023-03-15T23:30:47.088Z,100.00
2023-03-15T23:33:15.572Z,100.00
2023-03-15T23:35:44.770Z,100.00
2023-03-15T23:38:13.785Z,100.00
2023-03-15T23:40:42.318Z,100.00
2023-03-15T23:43:10.718Z,100.00
2023-03-15T23:45:39.220Z,100.00
2023-03-15T23:48:07.304Z,100.00
2023-03-15T23:50:38.487Z,100.00
2023-03-15T23:53:06.776Z,100.00
2023-03-15T23:55:35.047Z,100.00
2023-03-15T23:58:06.899Z,100.00
